sensor_id;sensor_type;location;lat;lon;timestamp;pressure;altitude;pressure_sealevel;temperature;humidity
58785;BME280;44557;51.862;19.378;2023-05-29T00:00:48;99461.89;;;16.04;48.25
58785;BME280;44557;51.862;19.378;2023-05-29T00:03:00;99459.65;;;16.03;48.35
58785;BME280;44557;51.862;19.378;2023-05-29T00:05:03;99461.38;;;15.74;49.11
58785;BME280;44557;51.862;19.378;2023-05-29T00:07:04;99457.58;;;15.46;49.84
58785;BME280;44557;51.862;19.378;2023-05-29T00:09:06;99456.84;;;15.50;49.86
58785;BME280;44557;51.862;19.378;2023-05-29T00:11:08;99459.33;;;15.63;49.50
58785;BME280;44557;51.862;19.378;2023-05-29T00:13:09;99456.71;;;15.70;49.11
58785;BME280;44557;51.862;19.378;2023-05-29T00:15:11;99455.02;;;15.49;49.46
58785;BME280;44557;51.862;19.378;2023-05-29T00:17:14;99454.23;;;15.69;49.05
58785;BME280;44557;51.862;19.378;2023-05-29T00:19:17;99450.09;;;15.54;49.56
58785;BME280;44557;51.862;19.378;2023-05-29T00:21:18;99449.39;;;15.63;49.49
58785;BME280;44557;51.862;19.378;2023-05-29T00:23:21;99450.96;;;15.49;49.97
58785;BME280;44557;51.862;19.378;2023-05-29T00:25:23;99453.93;;;15.46;49.89
58785;BME280;44557;51.862;19.378;2023-05-29T00:27:24;99451.11;;;15.38;50.24
58785;BME280;44557;51.862;19.378;2023-05-29T00:29:27;99449.84;;;15.31;50.58
58785;BME280;44557;51.862;19.378;2023-05-29T00:31:29;99448.92;;;15.45;49.85
58785;BME280;44557;51.862;19.378;2023-05-29T00:33:31;99445.55;;;15.35;50.35
58785;BME280;44557;51.862;19.378;2023-05-29T00:35:32;99447.81;;;15.28;50.50
58785;BME280;44557;51.862;19.378;2023-05-29T00:37:34;99449.40;;;15.34;50.28
58785;BME280;44557;51.862;19.378;2023-05-29T00:39:36;99450.14;;;15.36;50.27
58785;BME280;44557;51.862;19.378;2023-05-29T00:41:37;99449.98;;;15.20;50.54
58785;BME280;44557;51.862;19.378;2023-05-29T00:43:39;99449.92;;;15.66;49.37
58785;BME280;44557;51.862;19.378;2023-05-29T00:45:41;99451.11;;;15.42;49.81
58785;BME280;44557;51.862;19.378;2023-05-29T00:47:42;99449.30;;;15.27;50.28
58785;BME280;44557;51.862;19.378;2023-05-29T00:49:44;99444.52;;;15.21;50.56
58785;BME280;44557;51.862;19.378;2023-05-29T00:51:47;99443.96;;;15.04;51.22
58785;BME280;44557;51.862;19.378;2023-05-29T00:53:50;99445.77;;;15.12;51.11
58785;BME280;44557;51.862;19.378;2023-05-29T00:55:52;99446.63;;;15.24;50.60
58785;BME280;44557;51.862;19.378;2023-05-29T00:57:54;99446.46;;;15.07;51.19
58785;BME280;44557;51.862;19.378;2023-05-29T00:59:56;99441.15;;;15.06;51.20
58785;BME280;44557;51.862;19.378;2023-05-29T01:01:59;99439.77;;;15.09;51.04
58785;BME280;44557;51.862;19.378;2023-05-29T01:04:03;99438.34;;;14.74;52.39
58785;BME280;44557;51.862;19.378;2023-05-29T01:06:07;99441.24;;;14.82;52.84
58785;BME280;44557;51.862;19.378;2023-05-29T01:08:09;99441.69;;;14.85;52.87
58785;BME280;44557;51.862;19.378;2023-05-29T01:10:11;99441.27;;;14.83;52.48
58785;BME280;44557;51.862;19.378;2023-05-29T01:14:36;99436.94;;;14.70;53.08
58785;BME280;44557;51.862;19.378;2023-05-29T01:17:03;99437.33;;;14.75;53.33
58785;BME280;44557;51.862;19.378;2023-05-29T01:28:47;99437.33;;;15.00;51.76
58785;BME280;44557;51.862;19.378;2023-05-29T01:30:51;99435.86;;;14.87;52.03
58785;BME280;44557;51.862;19.378;2023-05-29T01:32:53;99437.77;;;14.52;53.04
58785;BME280;44557;51.862;19.378;2023-05-29T01:34:55;99435.98;;;14.50;53.30
58785;BME280;44557;51.862;19.378;2023-05-29T01:36:56;99438.80;;;14.53;53.41
58785;BME280;44557;51.862;19.378;2023-05-29T01:38:59;99434.85;;;14.49;53.67
58785;BME280;44557;51.862;19.378;2023-05-29T01:41:02;99436.98;;;14.44;54.17
58785;BME280;44557;51.862;19.378;2023-05-29T01:43:05;99436.93;;;14.45;53.90
58785;BME280;44557;51.862;19.378;2023-05-29T01:45:08;99438.06;;;14.47;54.39
58785;BME280;44557;51.862;19.378;2023-05-29T01:47:10;99436.30;;;14.49;54.17
58785;BME280;44557;51.862;19.378;2023-05-29T01:49:12;99434.28;;;14.62;53.59
58785;BME280;44557;51.862;19.378;2023-05-29T01:51:13;99432.20;;;14.34;54.56
58785;BME280;44557;51.862;19.378;2023-05-29T01:53:15;99431.62;;;14.28;54.84
58785;BME280;44557;51.862;19.378;2023-05-29T01:55:17;99432.80;;;14.20;55.20
58785;BME280;44557;51.862;19.378;2023-05-29T01:57:20;99431.91;;;14.19;55.35
58785;BME280;44557;51.862;19.378;2023-05-29T01:59:22;99429.45;;;14.10;55.79
58785;BME280;44557;51.862;19.378;2023-05-29T02:01:24;99427.52;;;13.95;55.90
58785;BME280;44557;51.862;19.378;2023-05-29T02:03:26;99425.53;;;14.16;55.74
58785;BME280;44557;51.862;19.378;2023-05-29T02:05:30;99422.58;;;14.19;55.65
58785;BME280;44557;51.862;19.378;2023-05-29T02:07:32;99427.51;;;14.03;55.92
58785;BME280;44557;51.862;19.378;2023-05-29T02:09:34;99427.74;;;13.99;55.97
58785;BME280;44557;51.862;19.378;2023-05-29T02:11:36;99424.74;;;14.41;54.57
58785;BME280;44557;51.862;19.378;2023-05-29T02:13:38;99423.84;;;14.53;53.60
58785;BME280;44557;51.862;19.378;2023-05-29T02:15:40;99423.23;;;14.45;53.87
58785;BME280;44557;51.862;19.378;2023-05-29T02:17:42;99420.94;;;14.43;53.86
58785;BME280;44557;51.862;19.378;2023-05-29T02:19:43;99428.95;;;14.13;54.93
58785;BME280;44557;51.862;19.378;2023-05-29T02:21:46;99423.14;;;14.06;55.37
58785;BME280;44557;51.862;19.378;2023-05-29T02:23:48;99424.95;;;13.90;56.17
58785;BME280;44557;51.862;19.378;2023-05-29T02:25:50;99425.53;;;13.87;56.53
58785;BME280;44557;51.862;19.378;2023-05-29T02:27:52;99420.46;;;13.95;56.60
58785;BME280;44557;51.862;19.378;2023-05-29T02:29:54;99423.73;;;13.88;56.79
58785;BME280;44557;51.862;19.378;2023-05-29T02:31:55;99422.08;;;14.05;55.63
58785;BME280;44557;51.862;19.378;2023-05-29T02:33:57;99425.14;;;14.07;55.61
58785;BME280;44557;51.862;19.378;2023-05-29T02:35:59;99421.94;;;13.93;56.22
58785;BME280;44557;51.862;19.378;2023-05-29T02:38:00;99423.50;;;13.92;56.40
58785;BME280;44557;51.862;19.378;2023-05-29T02:40:02;99418.36;;;13.88;56.77
58785;BME280;44557;51.862;19.378;2023-05-29T02:42:04;99417.89;;;13.88;56.45
58785;BME280;44557;51.862;19.378;2023-05-29T02:44:07;99418.87;;;13.70;57.52
58785;BME280;44557;51.862;19.378;2023-05-29T02:46:08;99416.16;;;13.57;58.33
58785;BME280;44557;51.862;19.378;2023-05-29T02:48:10;99413.73;;;13.50;59.01
58785;BME280;44557;51.862;19.378;2023-05-29T02:50:12;99413.89;;;13.50;59.18
58785;BME280;44557;51.862;19.378;2023-05-29T02:52:15;99415.46;;;13.42;59.55
58785;BME280;44557;51.862;19.378;2023-05-29T02:54:17;99416.29;;;13.48;59.46
58785;BME280;44557;51.862;19.378;2023-05-29T02:56:19;99417.31;;;13.59;59.01
58785;BME280;44557;51.862;19.378;2023-05-29T02:58:27;99418.68;;;13.80;57.95
58785;BME280;44557;51.862;19.378;2023-05-29T03:00:29;99419.89;;;13.57;58.55
58785;BME280;44557;51.862;19.378;2023-05-29T03:02:31;99422.84;;;13.54;59.31
58785;BME280;44557;51.862;19.378;2023-05-29T03:04:33;99424.79;;;13.49;59.47
58785;BME280;44557;51.862;19.378;2023-05-29T03:06:34;99425.23;;;13.44;59.54
58785;BME280;44557;51.862;19.378;2023-05-29T03:08:36;99424.39;;;13.64;59.26
58785;BME280;44557;51.862;19.378;2023-05-29T03:10:41;99423.95;;;13.70;58.67
58785;BME280;44557;51.862;19.378;2023-05-29T03:12:45;99425.52;;;13.66;58.65
58785;BME280;44557;51.862;19.378;2023-05-29T03:14:46;99427.17;;;13.54;59.79
58785;BME280;44557;51.862;19.378;2023-05-29T03:16:48;99427.36;;;13.40;59.83
58785;BME280;44557;51.862;19.378;2023-05-29T03:18:51;99428.79;;;13.44;59.69
58785;BME280;44557;51.862;19.378;2023-05-29T03:20:53;99426.67;;;13.72;58.32
58785;BME280;44557;51.862;19.378;2023-05-29T03:22:55;99430.55;;;14.05;56.60
58785;BME280;44557;51.862;19.378;2023-05-29T03:24:56;99429.77;;;14.14;56.31
58785;BME280;44557;51.862;19.378;2023-05-29T03:26:58;99427.67;;;14.15;56.42
58785;BME280;44557;51.862;19.378;2023-05-29T03:29:00;99431.20;;;14.10;56.51
58785;BME280;44557;51.862;19.378;2023-05-29T03:31:01;99429.52;;;14.10;56.07
58785;BME280;44557;51.862;19.378;2023-05-29T03:33:03;99429.12;;;14.43;55.19
58785;BME280;44557;51.862;19.378;2023-05-29T03:35:05;99433.81;;;14.59;54.45
58785;BME280;44557;51.862;19.378;2023-05-29T03:37:06;99432.30;;;14.47;55.03
58785;BME280;44557;51.862;19.378;2023-05-29T03:39:08;99430.54;;;14.56;54.54
58785;BME280;44557;51.862;19.378;2023-05-29T03:41:10;99435.13;;;14.56;55.40
58785;BME280;44557;51.862;19.378;2023-05-29T03:43:12;99436.35;;;14.35;56.42
58785;BME280;44557;51.862;19.378;2023-05-29T03:45:14;99443.90;;;14.25;56.61
58785;BME280;44557;51.862;19.378;2023-05-29T03:47:16;99445.30;;;14.31;56.48
58785;BME280;44557;51.862;19.378;2023-05-29T03:49:19;99448.85;;;14.48;56.02
58785;BME280;44557;51.862;19.378;2023-05-29T03:51:21;99450.34;;;14.48;56.05
58785;BME280;44557;51.862;19.378;2023-05-29T03:53:22;99451.67;;;14.60;55.01
58785;BME280;44557;51.862;19.378;2023-05-29T03:55:26;99451.81;;;14.73;54.29
58785;BME280;44557;51.862;19.378;2023-05-29T03:57:28;99452.33;;;14.96;53.84
58785;BME280;44557;51.862;19.378;2023-05-29T03:59:29;99456.40;;;15.09;54.01
58785;BME280;44557;51.862;19.378;2023-05-29T04:01:32;99462.35;;;15.20;53.32
58785;BME280;44557;51.862;19.378;2023-05-29T04:03:33;99462.33;;;15.12;53.39
58785;BME280;44557;51.862;19.378;2023-05-29T04:05:35;99463.48;;;15.31;53.06
58785;BME280;44557;51.862;19.378;2023-05-29T04:07:37;99459.59;;;15.25;53.27
58785;BME280;44557;51.862;19.378;2023-05-29T04:09:39;99458.56;;;15.21;53.28
58785;BME280;44557;51.862;19.378;2023-05-29T04:11:41;99463.05;;;15.29;52.60
58785;BME280;44557;51.862;19.378;2023-05-29T04:13:46;99461.77;;;15.39;52.54
58785;BME280;44557;51.862;19.378;2023-05-29T04:15:51;99460.50;;;15.23;53.88
58785;BME280;44557;51.862;19.378;2023-05-29T04:17:54;99459.48;;;15.25;55.10
58785;BME280;44557;51.862;19.378;2023-05-29T04:19:57;99455.37;;;15.35;54.46
58785;BME280;44557;51.862;19.378;2023-05-29T04:21:58;99461.98;;;15.79;52.09
58785;BME280;44557;51.862;19.378;2023-05-29T04:24:01;99460.38;;;15.53;52.76
58785;BME280;44557;51.862;19.378;2023-05-29T04:26:02;99460.27;;;15.63;52.99
58785;BME280;44557;51.862;19.378;2023-05-29T04:28:04;99461.16;;;15.59;53.92
58785;BME280;44557;51.862;19.378;2023-05-29T04:30:07;99463.05;;;15.76;53.35
58785;BME280;44557;51.862;19.378;2023-05-29T04:32:09;99461.44;;;15.73;53.21
58785;BME280;44557;51.862;19.378;2023-05-29T04:34:13;99461.80;;;15.96;52.10
58785;BME280;44557;51.862;19.378;2023-05-29T04:36:17;99464.86;;;16.01;51.77
58785;BME280;44557;51.862;19.378;2023-05-29T04:38:20;99461.26;;;16.04;52.27
58785;BME280;44557;51.862;19.378;2023-05-29T04:40:26;99457.69;;;16.13;52.51
58785;BME280;44557;51.862;19.378;2023-05-29T04:42:28;99460.70;;;16.48;52.01
58785;BME280;44557;51.862;19.378;2023-05-29T04:44:35;99460.98;;;16.47;52.31
58785;BME280;44557;51.862;19.378;2023-05-29T04:46:36;99461.41;;;16.34;52.88
58785;BME280;44557;51.862;19.378;2023-05-29T04:48:42;99462.83;;;16.33;53.28
58785;BME280;44557;51.862;19.378;2023-05-29T04:50:44;99459.84;;;16.36;53.48
58785;BME280;44557;51.862;19.378;2023-05-29T04:52:46;99461.35;;;16.58;53.07
58785;BME280;44557;51.862;19.378;2023-05-29T04:54:48;99461.77;;;16.71;53.18
58785;BME280;44557;51.862;19.378;2023-05-29T04:56:49;99457.70;;;16.88;51.83
58785;BME280;44557;51.862;19.378;2023-05-29T04:58:51;99455.19;;;16.92;51.74
58785;BME280;44557;51.862;19.378;2023-05-29T05:00:53;99454.45;;;17.01;51.22
58785;BME280;44557;51.862;19.378;2023-05-29T05:02:59;99453.80;;;17.10;51.48
58785;BME280;44557;51.862;19.378;2023-05-29T05:05:00;99456.67;;;17.00;51.92
58785;BME280;44557;51.862;19.378;2023-05-29T05:07:05;99451.60;;;17.13;51.67
58785;BME280;44557;51.862;19.378;2023-05-29T05:09:08;99449.80;;;17.30;51.31
58785;BME280;44557;51.862;19.378;2023-05-29T05:11:09;99451.52;;;17.39;51.03
58785;BME280;44557;51.862;19.378;2023-05-29T05:13:11;99444.77;;;17.41;50.78
58785;BME280;44557;51.862;19.378;2023-05-29T05:15:14;99448.85;;;17.55;50.32
58785;BME280;44557;51.862;19.378;2023-05-29T05:17:15;99448.06;;;17.57;50.79
58785;BME280;44557;51.862;19.378;2023-05-29T05:19:17;99450.52;;;17.46;51.17
58785;BME280;44557;51.862;19.378;2023-05-29T05:21:19;99447.41;;;17.54;50.55
58785;BME280;44557;51.862;19.378;2023-05-29T05:23:21;99452.16;;;17.69;50.38
58785;BME280;44557;51.862;19.378;2023-05-29T05:25:23;99451.21;;;17.84;50.13
58785;BME280;44557;51.862;19.378;2023-05-29T05:27:27;99455.59;;;18.11;49.30
58785;BME280;44557;51.862;19.378;2023-05-29T05:29:28;99453.69;;;18.17;48.80
58785;BME280;44557;51.862;19.378;2023-05-29T05:31:30;99453.63;;;18.22;48.70
58785;BME280;44557;51.862;19.378;2023-05-29T05:33:32;99452.29;;;18.30;47.59
58785;BME280;44557;51.862;19.378;2023-05-29T05:35:33;99457.98;;;18.09;47.00
58785;BME280;44557;51.862;19.378;2023-05-29T05:37:35;99456.58;;;18.24;45.86
58785;BME280;44557;51.862;19.378;2023-05-29T05:39:37;99459.41;;;18.39;46.18
58785;BME280;44557;51.862;19.378;2023-05-29T05:41:39;99455.58;;;18.35;46.86
58785;BME280;44557;51.862;19.378;2023-05-29T05:43:41;99458.79;;;18.44;46.66
58785;BME280;44557;51.862;19.378;2023-05-29T05:45:42;99462.58;;;18.62;45.98
58785;BME280;44557;51.862;19.378;2023-05-29T05:47:47;99460.74;;;18.79;45.86
58785;BME280;44557;51.862;19.378;2023-05-29T05:49:49;99459.84;;;18.59;44.54
58785;BME280;44557;51.862;19.378;2023-05-29T05:51:52;99462.67;;;18.37;44.95
58785;BME280;44557;51.862;19.378;2023-05-29T05:53:54;99462.80;;;18.64;45.53
58785;BME280;44557;51.862;19.378;2023-05-29T05:55:56;99460.17;;;18.98;45.57
58785;BME280;44557;51.862;19.378;2023-05-29T05:57:58;99461.68;;;19.13;44.36
58785;BME280;44557;51.862;19.378;2023-05-29T06:00:03;99463.36;;;18.83;45.05
58785;BME280;44557;51.862;19.378;2023-05-29T06:02:14;99461.20;;;19.05;45.81
58785;BME280;44557;51.862;19.378;2023-05-29T06:04:16;99459.48;;;19.45;44.13
58785;BME280;44557;51.862;19.378;2023-05-29T06:06:18;99461.42;;;19.63;43.14
58785;BME280;44557;51.862;19.378;2023-05-29T06:08:20;99461.11;;;19.64;43.82
58785;BME280;44557;51.862;19.378;2023-05-29T06:10:22;99463.83;;;19.84;44.10
58785;BME280;44557;51.862;19.378;2023-05-29T06:12:23;99462.34;;;19.77;42.88
58785;BME280;44557;51.862;19.378;2023-05-29T06:14:26;99466.81;;;20.30;42.20
58785;BME280;44557;51.862;19.378;2023-05-29T06:16:28;99467.75;;;20.49;42.24
58785;BME280;44557;51.862;19.378;2023-05-29T06:18:30;99467.45;;;20.31;42.72
58785;BME280;44557;51.862;19.378;2023-05-29T06:20:32;99464.52;;;20.52;42.82
58785;BME280;44557;51.862;19.378;2023-05-29T06:22:34;99462.60;;;20.65;42.18
58785;BME280;44557;51.862;19.378;2023-05-29T06:24:36;99461.63;;;21.06;41.65
58785;BME280;44557;51.862;19.378;2023-05-29T06:26:39;99462.27;;;20.74;42.32
58785;BME280;44557;51.862;19.378;2023-05-29T06:28:40;99462.30;;;20.49;43.20
58785;BME280;44557;51.862;19.378;2023-05-29T06:30:42;99461.68;;;20.79;42.94
58785;BME280;44557;51.862;19.378;2023-05-29T06:32:44;99465.67;;;20.91;41.75
58785;BME280;44557;51.862;19.378;2023-05-29T06:34:45;99467.15;;;21.06;42.23
58785;BME280;44557;51.862;19.378;2023-05-29T06:36:47;99465.68;;;21.34;41.71
58785;BME280;44557;51.862;19.378;2023-05-29T06:38:49;99467.95;;;21.54;41.36
58785;BME280;44557;51.862;19.378;2023-05-29T06:40:51;99468.12;;;21.96;40.55
58785;BME280;44557;51.862;19.378;2023-05-29T06:42:53;99471.96;;;21.69;40.21
58785;BME280;44557;51.862;19.378;2023-05-29T06:44:56;99472.19;;;21.63;40.41
58785;BME280;44557;51.862;19.378;2023-05-29T06:46:58;99469.58;;;21.83;40.22
58785;BME280;44557;51.862;19.378;2023-05-29T06:48:59;99467.96;;;22.09;39.86
58785;BME280;44557;51.862;19.378;2023-05-29T06:51:04;99470.15;;;22.31;39.28
58785;BME280;44557;51.862;19.378;2023-05-29T06:53:10;99468.91;;;22.33;39.69
58785;BME280;44557;51.862;19.378;2023-05-29T06:55:12;99474.51;;;22.57;39.50
58785;BME280;44557;51.862;19.378;2023-05-29T06:57:14;99473.38;;;22.47;38.55
58785;BME280;44557;51.862;19.378;2023-05-29T06:59:16;99471.67;;;22.54;38.66
58785;BME280;44557;51.862;19.378;2023-05-29T07:01:17;99473.98;;;22.60;38.90
58785;BME280;44557;51.862;19.378;2023-05-29T07:03:19;99473.73;;;22.21;40.25
58785;BME280;44557;51.862;19.378;2023-05-29T07:05:21;99474.27;;;22.57;39.52
58785;BME280;44557;51.862;19.378;2023-05-29T07:07:22;99476.02;;;22.69;37.84
58785;BME280;44557;51.862;19.378;2023-05-29T07:09:24;99472.40;;;22.42;37.04
58785;BME280;44557;51.862;19.378;2023-05-29T07:11:26;99471.08;;;22.62;37.05
58785;BME280;44557;51.862;19.378;2023-05-29T07:13:28;99479.23;;;22.74;37.33
58785;BME280;44557;51.862;19.378;2023-05-29T07:15:30;99480.00;;;22.66;36.99
58785;BME280;44557;51.862;19.378;2023-05-29T07:17:32;99478.95;;;23.01;35.91
58785;BME280;44557;51.862;19.378;2023-05-29T07:19:34;99477.96;;;22.98;35.38
58785;BME280;44557;51.862;19.378;2023-05-29T07:21:35;99478.36;;;22.62;35.59
58785;BME280;44557;51.862;19.378;2023-05-29T07:23:39;99481.80;;;22.84;35.04
58785;BME280;44557;51.862;19.378;2023-05-29T07:25:41;99478.88;;;23.29;33.43
58785;BME280;44557;51.862;19.378;2023-05-29T07:27:42;99483.29;;;23.15;33.26
58785;BME280;44557;51.862;19.378;2023-05-29T07:29:44;99485.23;;;23.15;34.99
58785;BME280;44557;51.862;19.378;2023-05-29T07:31:46;99486.73;;;23.39;34.70
58785;BME280;44557;51.862;19.378;2023-05-29T07:33:48;99486.80;;;23.12;34.81
58785;BME280;44557;51.862;19.378;2023-05-29T07:35:50;99488.24;;;23.03;34.13
58785;BME280;44557;51.862;19.378;2023-05-29T07:37:52;99486.98;;;22.87;33.70
58785;BME280;44557;51.862;19.378;2023-05-29T07:40:00;99487.38;;;23.31;33.99
58785;BME280;44557;51.862;19.378;2023-05-29T07:42:02;99487.86;;;23.57;33.19
58785;BME280;44557;51.862;19.378;2023-05-29T07:44:04;99490.30;;;23.47;34.26
58785;BME280;44557;51.862;19.378;2023-05-29T07:46:05;99485.14;;;23.77;34.73
58785;BME280;44557;51.862;19.378;2023-05-29T07:48:07;99487.17;;;23.96;33.66
58785;BME280;44557;51.862;19.378;2023-05-29T07:50:09;99487.02;;;24.00;31.38
58785;BME280;44557;51.862;19.378;2023-05-29T07:52:11;99489.41;;;23.97;31.82
58785;BME280;44557;51.862;19.378;2023-05-29T07:54:13;99493.08;;;24.21;32.19
58785;BME280;44557;51.862;19.378;2023-05-29T07:56:18;99491.60;;;24.27;30.93
58785;BME280;44557;51.862;19.378;2023-05-29T07:58:20;99493.01;;;24.22;31.10
58785;BME280;44557;51.862;19.378;2023-05-29T08:00:22;99496.29;;;24.30;30.84
58785;BME280;44557;51.862;19.378;2023-05-29T08:02:24;99495.30;;;24.24;30.41
58785;BME280;44557;51.862;19.378;2023-05-29T08:04:26;99492.16;;;24.27;30.67
58785;BME280;44557;51.862;19.378;2023-05-29T08:06:28;99492.66;;;23.90;32.43
58785;BME280;44557;51.862;19.378;2023-05-29T08:08:30;99492.55;;;23.64;33.38
58785;BME280;44557;51.862;19.378;2023-05-29T08:10:35;99496.84;;;23.79;33.26
58785;BME280;44557;51.862;19.378;2023-05-29T08:12:37;99494.67;;;24.55;32.13
58785;BME280;44557;51.862;19.378;2023-05-29T08:14:38;99492.13;;;25.18;31.53
58785;BME280;44557;51.862;19.378;2023-05-29T08:16:41;99495.52;;;24.70;32.89
58785;BME280;44557;51.862;19.378;2023-05-29T08:18:43;99495.08;;;24.51;32.29
58785;BME280;44557;51.862;19.378;2023-05-29T08:20:45;99495.70;;;24.41;32.25
58785;BME280;44557;51.862;19.378;2023-05-29T08:22:46;99497.53;;;24.60;32.98
58785;BME280;44557;51.862;19.378;2023-05-29T08:24:49;99493.73;;;24.19;33.37
58785;BME280;44557;51.862;19.378;2023-05-29T08:26:50;99498.02;;;23.68;33.83
58785;BME280;44557;51.862;19.378;2023-05-29T08:28:52;99493.07;;;24.83;32.24
58785;BME280;44557;51.862;19.378;2023-05-29T08:30:54;99491.73;;;25.17;31.62
58785;BME280;44557;51.862;19.378;2023-05-29T08:32:56;99494.70;;;24.82;32.28
58785;BME280;44557;51.862;19.378;2023-05-29T08:34:57;99497.42;;;24.83;31.61
58785;BME280;44557;51.862;19.378;2023-05-29T08:36:59;99496.21;;;25.34;31.32
58785;BME280;44557;51.862;19.378;2023-05-29T08:39:01;99499.09;;;25.48;30.37
58785;BME280;44557;51.862;19.378;2023-05-29T08:41:04;99500.18;;;25.38;30.39
58785;BME280;44557;51.862;19.378;2023-05-29T08:45:13;99496.98;;;25.17;30.47
58785;BME280;44557;51.862;19.378;2023-05-29T08:47:17;99492.85;;;25.71;29.90
58785;BME280;44557;51.862;19.378;2023-05-29T08:49:22;99493.64;;;25.80;29.55
58785;BME280;44557;51.862;19.378;2023-05-29T08:51:31;99489.15;;;24.77;30.42
58785;BME280;44557;51.862;19.378;2023-05-29T08:53:37;99493.14;;;24.62;30.82
58785;BME280;44557;51.862;19.378;2023-05-29T08:55:38;99492.73;;;25.00;30.53
58785;BME280;44557;51.862;19.378;2023-05-29T08:57:41;99492.09;;;25.74;29.63
58785;BME280;44557;51.862;19.378;2023-05-29T08:59:44;99493.30;;;25.46;29.79
58785;BME280;44557;51.862;19.378;2023-05-29T09:01:46;99491.60;;;24.56;30.69
58785;BME280;44557;51.862;19.378;2023-05-29T09:03:48;99494.17;;;24.84;30.31
58785;BME280;44557;51.862;19.378;2023-05-29T09:05:49;99491.30;;;24.65;31.40
58785;BME280;44557;51.862;19.378;2023-05-29T09:07:52;99489.29;;;24.92;31.07
58785;BME280;44557;51.862;19.378;2023-05-29T09:09:54;99491.47;;;25.34;29.87
58785;BME280;44557;51.862;19.378;2023-05-29T09:11:57;99492.36;;;25.53;29.30
58785;BME280;44557;51.862;19.378;2023-05-29T09:13:59;99493.55;;;25.31;29.47
58785;BME280;44557;51.862;19.378;2023-05-29T09:16:01;99491.30;;;24.80;29.89
58785;BME280;44557;51.862;19.378;2023-05-29T09:18:07;99491.09;;;24.32;30.55
58785;BME280;44557;51.862;19.378;2023-05-29T09:20:16;99488.29;;;24.21;30.86
58785;BME280;44557;51.862;19.378;2023-05-29T09:22:19;99487.97;;;24.31;30.23
58785;BME280;44557;51.862;19.378;2023-05-29T09:24:21;99490.34;;;24.47;30.77
58785;BME280;44557;51.862;19.378;2023-05-29T09:26:23;99488.83;;;24.71;30.58
58785;BME280;44557;51.862;19.378;2023-05-29T09:28:25;99486.94;;;25.19;29.62
58785;BME280;44557;51.862;19.378;2023-05-29T09:30:38;99485.21;;;25.14;29.78
58785;BME280;44557;51.862;19.378;2023-05-29T09:32:40;99481.18;;;24.81;30.07
58785;BME280;44557;51.862;19.378;2023-05-29T09:34:44;99479.53;;;24.08;30.23
58785;BME280;44557;51.862;19.378;2023-05-29T09:36:48;99477.80;;;25.20;29.48
58785;BME280;44557;51.862;19.378;2023-05-29T09:38:50;99481.77;;;25.71;29.84
58785;BME280;44557;51.862;19.378;2023-05-29T09:40:52;99481.67;;;25.78;30.52
58785;BME280;44557;51.862;19.378;2023-05-29T09:43:12;99478.64;;;25.62;30.30
58785;BME280;44557;51.862;19.378;2023-05-29T09:45:21;99475.44;;;26.12;29.14
58785;BME280;44557;51.862;19.378;2023-05-29T09:47:24;99474.67;;;25.62;29.10
58785;BME280;44557;51.862;19.378;2023-05-29T09:49:26;99473.98;;;26.20;29.17
58785;BME280;44557;51.862;19.378;2023-05-29T09:51:30;99475.44;;;26.66;29.17
58785;BME280;44557;51.862;19.378;2023-05-29T09:53:31;99474.63;;;26.76;28.28
58785;BME280;44557;51.862;19.378;2023-05-29T09:55:34;99477.08;;;26.52;27.07
58785;BME280;44557;51.862;19.378;2023-05-29T09:57:42;99475.04;;;27.03;26.59
58785;BME280;44557;51.862;19.378;2023-05-29T09:59:44;99472.80;;;26.62;26.97
58785;BME280;44557;51.862;19.378;2023-05-29T10:02:04;99483.05;;;26.67;26.71
58785;BME280;44557;51.862;19.378;2023-05-29T10:04:06;99484.29;;;26.05;27.85
58785;BME280;44557;51.862;19.378;2023-05-29T10:06:12;99479.96;;;26.09;27.85
58785;BME280;44557;51.862;19.378;2023-05-29T10:08:20;99482.03;;;26.11;27.98
58785;BME280;44557;51.862;19.378;2023-05-29T10:10:25;99478.75;;;26.26;27.33
58785;BME280;44557;51.862;19.378;2023-05-29T10:12:29;99474.85;;;25.94;28.24
58785;BME280;44557;51.862;19.378;2023-05-29T10:14:34;99474.83;;;25.86;29.35
58785;BME280;44557;51.862;19.378;2023-05-29T10:16:42;99473.84;;;25.55;28.43
58785;BME280;44557;51.862;19.378;2023-05-29T10:18:48;99477.79;;;25.02;29.46
58785;BME280;44557;51.862;19.378;2023-05-29T10:20:52;99472.88;;;25.18;28.83
58785;BME280;44557;51.862;19.378;2023-05-29T10:23:01;99475.20;;;25.59;28.95
58785;BME280;44557;51.862;19.378;2023-05-29T10:25:05;99463.95;;;25.97;28.66
58785;BME280;44557;51.862;19.378;2023-05-29T10:27:15;99463.70;;;25.54;29.11
58785;BME280;44557;51.862;19.378;2023-05-29T10:29:36;99464.05;;;25.07;29.23
58785;BME280;44557;51.862;19.378;2023-05-29T10:37:00;99459.77;;;25.04;29.27
58785;BME280;44557;51.862;19.378;2023-05-29T10:39:05;99456.30;;;24.96;29.11
58785;BME280;44557;51.862;19.378;2023-05-29T10:41:38;99454.64;;;24.76;29.62
58785;BME280;44557;51.862;19.378;2023-05-29T10:43:42;99454.92;;;24.58;30.21
58785;BME280;44557;51.862;19.378;2023-05-29T10:45:49;99452.27;;;24.07;30.58
58785;BME280;44557;51.862;19.378;2023-05-29T10:47:51;99452.09;;;23.85;30.65
58785;BME280;44557;51.862;19.378;2023-05-29T10:49:59;99450.27;;;24.26;29.98
58785;BME280;44557;51.862;19.378;2023-05-29T10:52:04;99449.55;;;24.88;29.60
58785;BME280;44557;51.862;19.378;2023-05-29T10:54:06;99451.33;;;25.37;28.79
58785;BME280;44557;51.862;19.378;2023-05-29T10:56:09;99450.40;;;25.42;28.68
58785;BME280;44557;51.862;19.378;2023-05-29T10:58:20;99447.07;;;24.66;29.95
58785;BME280;44557;51.862;19.378;2023-05-29T11:00:22;99449.66;;;24.21;30.32
58785;BME280;44557;51.862;19.378;2023-05-29T11:02:24;99445.11;;;24.26;29.95